Time;durP1;ratioP1;P1;durP2;ratioP2;P2;SDS_P1;SDS_P2;PMS_P1;PMS_P2;Temp;Humidity;BMP_temperature;BMP_pressure;BME280_temperature;BME280_humidity;BME280_pressure;Samples;Min_cycle;Max_cycle;Signal;HPM_P1;HPM_P2
2021/04/13 00:00:04;;;;;;;8.27;4.72;;;14.80;96.00;;;;;;5121195;28;20027;-69
2021/04/13 00:02:39;;;;;;;9.23;5.70;;;14.80;96.30;;;;;;5118165;28;20076;-72
2021/04/13 00:05:13;;;;;;;11.15;6.47;;;14.70;97.20;;;;;;5118767;28;20046;-72
2021/04/13 00:07:44;;;;;;;13.15;7.35;;;14.40;98.20;;;;;;5120058;28;20549;-73
2021/04/13 00:10:27;;;;;;;14.50;8.70;;;14.40;97.90;;;;;;5120109;28;20100;-74
2021/04/13 00:12:55;;;;;;;14.63;10.27;;;14.20;96.50;;;;;;5120550;28;20103;-74
2021/04/13 00:15:39;;;;;;;18.30;9.80;;;13.90;96.70;;;;;;5120784;28;20032;-71
2021/04/13 00:18:06;;;;;;;14.32;9.40;;;13.80;96.00;;;;;;5121633;28;20026;-74
2021/04/13 00:20:50;;;;;;;13.05;9.50;;;13.70;95.80;;;;;;5120495;28;20024;-69
2021/04/13 00:23:17;;;;;;;14.00;8.98;;;13.60;95.00;;;;;;5120380;28;20482;-70
2021/04/13 00:25:56;;;;;;;15.02;8.82;;;13.30;94.50;;;;;;5118777;28;20020;-69
2021/04/13 00:28:25;;;;;;;15.95;10.60;;;13.10;94.60;;;;;;5119977;27;20343;-70
2021/04/13 00:30:55;;;;;;;15.82;11.68;;;13.10;94.80;;;;;;5121839;28;20354;-71
2021/04/13 00:33:27;;;;;;;13.15;9.13;;;13.10;94.40;;;;;;5120538;28;20019;-70
2021/04/13 00:36:21;;;;;;;13.13;8.30;;;13.10;94.10;;;;;;5118141;28;20015;-70
2021/04/13 00:38:50;;;;;;;12.40;8.25;;;13.00;94.20;;;;;;5116730;28;20043;-73
2021/04/13 00:41:28;;;;;;;11.20;8.80;;;12.80;94.60;;;;;;5119890;28;20481;-73
2021/04/13 00:44:00;;;;;;;10.00;8.43;;;12.60;95.10;;;;;;5120878;28;20041;-74
2021/04/13 00:46:33;;;;;;;13.10;9.05;;;12.80;95.10;;;;;;5118480;28;20020;-74
2021/04/13 00:49:01;;;;;;;16.23;9.20;;;12.90;95.00;;;;;;5117870;28;20396;-71
2021/04/13 00:51:35;;;;;;;15.60;10.15;;;12.70;95.90;;;;;;5119061;28;20023;-70
2021/04/13 00:54:07;;;;;;;;;;;12.50;96.20;;;;;;5119259;28;20015;-70
2021/04/13 00:56:35;;;;;;;16.50;10.68;;;12.60;96.70;;;;;;5120821;28;19919;-72
2021/04/13 00:59:13;;;;;;;14.98;10.32;;;12.40;96.60;;;;;;5117975;28;20019;-70
2021/04/13 01:01:54;;;;;;;15.20;8.60;;;12.20;96.00;;;;;;5119841;28;20095;-71
2021/04/13 01:04:38;;;;;;;12.93;8.45;;;12.20;95.40;;;;;;5120470;28;20039;-74
2021/04/13 01:07:14;;;;;;;9.48;8.00;;;11.90;95.30;;;;;;5120718;28;20057;-71
2021/04/13 01:09:49;;;;;;;14.43;8.27;;;11.80;95.20;;;;;;5121240;28;20024;-72
2021/04/13 01:12:35;;;;;;;9.68;7.32;;;11.90;95.00;;;;;;5118597;28;20027;-73
2021/04/13 01:15:02;;;;;;;11.55;7.72;;;11.70;95.40;;;;;;5119526;28;20034;-70
2021/04/13 01:17:29;;;;;;;9.40;7.05;;;12.00;94.70;;;;;;5117864;28;20046;-73
2021/04/13 01:20:11;;;;;;;8.85;6.30;;;12.00;94.60;;;;;;5119004;28;20031;-71
2021/04/13 01:22:59;;;;;;;12.23;6.90;;;11.70;94.20;;;;;;5118782;28;20427;-72
2021/04/13 01:25:46;;;;;;;9.07;5.95;;;11.50;94.40;;;;;;5119865;28;20400;-73
2021/04/13 01:28:18;;;;;;;9.10;6.07;;;11.50;94.20;;;;;;5120470;28;20028;-71
2021/04/13 01:31:11;;;;;;;9.52;5.80;;;11.60;93.90;;;;;;5120638;28;20423;-69
2021/04/13 01:33:47;;;;;;;7.68;5.50;;;11.40;93.90;;;;;;5113155;28;20066;-73
2021/04/13 01:36:24;;;;;;;10.15;5.88;;;11.30;93.70;;;;;;5118062;28;20042;-69
2021/04/13 01:39:22;;;;;;;8.45;6.00;;;11.30;93.90;;;;;;5119660;28;20024;-69
2021/04/13 01:41:58;;;;;;;10.32;5.40;;;11.20;93.60;;;;;;5118188;28;20073;-70
2021/04/13 01:44:38;;;;;;;8.25;5.30;;;11.30;93.60;;;;;;5116279;28;20066;-69
2021/04/13 01:47:06;;;;;;;9.25;4.82;;;10.80;93.70;;;;;;5118233;28;20019;-69
2021/04/13 01:49:42;;;;;;;10.10;5.25;;;11.10;93.80;;;;;;5116267;28;20022;-72
2021/04/13 01:52:14;;;;;;;8.90;5.38;;;10.80;93.40;;;;;;5118577;28;20039;-70
2021/04/13 01:54:40;;;;;;;7.95;5.13;;;10.60;93.40;;;;;;5117511;27;20374;-74
2021/04/13 01:57:28;;;;;;;6.50;4.90;;;10.50;93.40;;;;;;5117429;28;20024;-73
2021/04/13 02:00:06;;;;;;;9.68;5.55;;;10.50;93.30;;;;;;5117488;28;20386;-74
2021/04/13 02:02:37;;;;;;;7.90;5.40;;;10.30;94.40;;;;;;5118369;28;20030;-70
2021/04/13 02:05:13;;;;;;;8.60;5.28;;;10.50;93.80;;;;;;5118478;28;20024;-70
2021/04/13 02:07:54;;;;;;;7.35;4.90;;;10.50;94.20;;;;;;5119245;28;20019;-74
2021/04/13 02:10:35;;;;;;;9.05;5.53;;;10.50;93.90;;;;;;5118710;28;20069;-69
2021/04/13 02:13:11;;;;;;;10.25;5.10;;;10.30;93.40;;;;;;5119742;28;20036;-73
2021/04/13 02:16:03;;;;;;;7.50;5.05;;;10.30;93.20;;;;;;5118714;27;20041;-73
2021/04/13 02:18:41;;;;;;;7.50;4.70;;;10.40;93.40;;;;;;5119317;28;20022;-69
2021/04/13 02:21:13;;;;;;;7.47;4.60;;;10.40;93.70;;;;;;5118086;28;20028;-70
2021/04/13 02:23:54;;;;;;;6.85;5.07;;;10.20;93.50;;;;;;5118118;28;20014;-72
2021/04/13 02:26:21;;;;;;;10.60;6.28;;;10.10;93.40;;;;;;5118129;28;20016;-70
2021/04/13 02:28:49;;;;;;;10.30;6.40;;;10.10;93.60;;;;;;5119557;28;20043;-69
2021/04/13 02:31:36;;;;;;;15.63;9.00;;;10.20;93.50;;;;;;5117881;27;20047;-73
2021/04/13 02:34:14;;;;;;;22.73;12.20;;;10.00;93.70;;;;;;5117300;28;20030;-73
2021/04/13 02:36:43;;;;;;;16.63;11.10;;;10.00;93.70;;;;;;5116110;28;20044;-69
2021/04/13 02:39:14;;;;;;;18.55;10.55;;;10.20;93.60;;;;;;5115479;28;20052;-69
2021/04/13 02:41:51;;;;;;;18.55;10.80;;;10.10;93.90;;;;;;5118405;28;20023;-70
2021/04/13 02:44:21;;;;;;;18.25;10.40;;;9.90;93.60;;;;;;5118054;28;20033;-73
2021/04/13 02:46:49;;;;;;;20.67;10.75;;;9.90;93.60;;;;;;5118548;28;20106;-70
2021/04/13 02:49:19;;;;;;;14.18;9.55;;;10.10;94.00;;;;;;5116693;28;20031;-70
2021/04/13 02:52:05;;;;;;;8.55;6.57;;;10.20;93.30;;;;;;5116763;28;20024;-73
2021/04/13 02:54:44;;;;;;;25.83;18.30;;;10.10;93.00;;;;;;5115715;28;20023;-69
2021/04/13 02:57:21;;;;;;;26.30;17.65;;;9.90;93.30;;;;;;5117363;28;20403;-70
2021/04/13 02:59:47;;;;;;;19.45;13.35;;;9.70;93.20;;;;;;5116970;28;20019;-69
2021/04/13 03:02:23;;;;;;;20.80;13.88;;;9.70;93.20;;;;;;5116387;28;20058;-73
2021/04/13 03:04:51;;;;;;;13.98;8.00;;;9.50;93.70;;;;;;5117236;28;20482;-73
2021/04/13 03:07:21;;;;;;;12.20;8.60;;;9.80;93.40;;;;;;5114972;28;20020;-69
2021/04/13 03:10:03;;;;;;;10.77;7.75;;;9.50;94.00;;;;;;5116650;28;20347;-74
2021/04/13 03:12:31;;;;;;;8.45;7.25;;;9.50;93.60;;;;;;5117937;28;20024;-73
2021/04/13 03:14:58;;;;;;;7.38;6.38;;;9.40;93.90;;;;;;5116374;28;20493;-69
2021/04/13 03:17:27;;;;;;;9.80;6.20;;;;;;;;;;5119705;28;20016;-74
2021/04/13 03:20:04;;;;;;;8.85;6.10;;;9.40;99.90;;;;;;5120595;28;20474;-69
2021/04/13 03:22:32;;;;;;;8.27;5.45;;;9.20;94.30;;;;;;5120729;28;20074;-70
2021/04/13 03:25:00;;;;;;;6.65;5.40;;;9.10;93.90;;;;;;5120757;28;20474;-70
2021/04/13 03:27:30;;;;;;;8.93;6.65;;;9.40;93.90;;;;;;5121123;28;20015;-74
2021/04/13 03:30:05;;;;;;;7.53;5.28;;;9.10;94.00;;;;;;5120720;28;20047;-74
2021/04/13 03:32:40;;;;;;;5.93;5.05;;;9.20;94.00;;;;;;5120749;28;20373;-72
2021/04/13 03:35:08;;;;;;;7.53;5.20;;;9.40;94.00;;;;;;5118719;28;20027;-70
2021/04/13 03:37:36;;;;;;;6.50;5.35;;;9.30;93.90;;;;;;5119779;28;20024;-70
2021/04/13 03:40:07;;;;;;;7.05;6.07;;;9.30;94.20;;;;;;5120736;28;20065;-70
2021/04/13 03:42:35;;;;;;;7.07;5.60;;;9.30;94.10;;;;;;5122620;28;20088;-70
2021/04/13 03:45:03;;;;;;;7.82;5.65;;;9.50;94.30;;;;;;5120994;28;20052;-72
2021/04/13 03:47:34;;;;;;;7.88;6.75;;;9.50;93.80;;;;;;5120939;28;20031;-72
2021/04/13 03:50:02;;;;;;;5.70;5.10;;;9.30;94.20;;;;;;5120455;28;20019;-73
2021/04/13 03:52:34;;;;;;;7.85;6.55;;;9.50;94.00;;;;;;5119214;28;20012;-70
2021/04/13 03:55:18;;;;;;;7.32;6.20;;;9.30;94.10;;;;;;5120724;28;20023;-73
2021/04/13 03:57:46;;;;;;;6.90;6.15;;;9.30;94.10;;;;;;5120974;28;20079;-69
2021/04/13 04:00:19;;;;;;;5.82;5.13;;;9.30;93.80;;;;;;5119473;28;20478;-69
2021/04/13 04:02:46;;;;;;;5.77;5.13;;;9.10;93.60;;;;;;5120076;28;20134;-74
2021/04/13 04:05:15;;;;;;;6.38;5.75;;;9.30;93.60;;;;;;5120481;28;20335;-74
2021/04/13 04:07:56;;;;;;;6.00;5.40;;;9.10;93.60;;;;;;5121639;28;20061;-71
2021/04/13 04:10:46;;;;;;;5.75;5.13;;;9.30;93.70;;;;;;5119696;28;20108;-73
2021/04/13 04:13:32;;;;;;;6.10;5.20;;;9.20;93.60;;;;;;5119753;28;20045;-74
2021/04/13 04:16:16;;;;;;;7.38;5.20;;;9.10;93.90;;;;;;5119154;28;20115;-74
2021/04/13 04:18:46;;;;;;;6.78;5.38;;;9.10;94.00;;;;;;5117982;28;20114;-71
2021/04/13 04:21:34;;;;;;;7.55;6.80;;;9.00;94.10;;;;;;5118650;28;20020;-70
2021/04/13 04:24:10;;;;;;;7.18;5.35;;;9.00;94.50;;;;;;5120269;28;20023;-74
2021/04/13 04:26:55;;;;;;;7.95;6.40;;;9.20;94.00;;;;;;5117014;28;20119;-75
2021/04/13 04:29:41;;;;;;;9.52;7.22;;;9.10;94.30;;;;;;5118992;28;20507;-71
2021/04/13 04:32:15;;;;;;;6.57;5.78;;;9.30;94.30;;;;;;5117668;28;20074;-70
2021/04/13 04:34:50;;;;;;;7.63;6.82;;;9.40;93.80;;;;;;5118651;28;20020;-70
2021/04/13 04:37:26;;;;;;;7.68;6.55;;;9.50;93.40;;;;;;5118890;28;20032;-74
2021/04/13 04:40:18;;;;;;;7.50;5.95;;;9.30;93.90;;;;;;5119251;28;20031;-73
2021/04/13 04:42:54;;;;;;;8.32;6.80;;;9.20;94.10;;;;;;5119572;28;20020;-70
2021/04/13 04:45:31;;;;;;;9.80;7.43;;;;;;;;;;5119057;28;20042;-74
2021/04/13 04:47:58;;;;;;;6.78;5.90;;;8.80;94.60;;;;;;5119165;28;20031;-70
2021/04/13 04:50:24;;;;;;;7.68;6.10;;;9.00;94.10;;;;;;5117484;28;20448;-73
2021/04/13 04:52:50;;;;;;;7.18;5.78;;;9.00;94.40;;;;;;5118741;28;20373;-74
2021/04/13 04:55:17;;;;;;;8.13;6.15;;;9.30;94.20;;;;;;5119387;28;20026;-70
2021/04/13 04:57:43;;;;;;;11.32;7.07;;;9.10;94.20;;;;;;5116272;28;20031;-73
2021/04/13 05:00:10;;;;;;;7.97;6.53;;;9.10;94.30;;;;;;5118905;28;20020;-70
2021/04/13 05:02:36;;;;;;;12.63;7.45;;;9.20;94.50;;;;;;5117616;28;20027;-70
2021/04/13 05:05:03;;;;;;;8.82;6.93;;;9.20;94.60;;;;;;5117705;28;20019;-72
2021/04/13 05:07:29;;;;;;;10.13;6.88;;;9.10;94.70;;;;;;5118780;28;20030;-70
2021/04/13 05:09:55;;;;;;;9.95;6.78;;;9.10;94.60;;;;;;5118825;28;20489;-73
2021/04/13 05:12:21;;;;;;;9.43;5.65;;;8.80;93.90;;;;;;5117878;28;20103;-70
2021/04/13 05:14:47;;;;;;;8.82;5.63;;;9.00;94.10;;;;;;5117601;28;20095;-74
2021/04/13 05:17:13;;;;;;;6.60;5.82;;;9.10;94.30;;;;;;5118701;28;20062;-71
2021/04/13 05:19:39;;;;;;;9.02;7.10;;;9.10;93.50;;;;;;5116644;28;20035;-71
2021/04/13 05:22:04;;;;;;;20.58;13.50;;;9.10;93.70;;;;;;5116497;28;20068;-71
2021/04/13 05:24:30;;;;;;;17.00;11.90;;;9.00;94.20;;;;;;5116490;28;20354;-73
2021/04/13 05:26:56;;;;;;;20.15;13.38;;;9.20;94.30;;;;;;5116485;28;20512;-70
2021/04/13 05:29:23;;;;;;;33.67;21.08;;;9.50;93.50;;;;;;5118591;28;20130;-71
2021/04/13 05:31:49;;;;;;;21.20;14.52;;;9.30;93.90;;;;;;5116437;28;20047;-71
2021/04/13 05:34:15;;;;;;;16.73;9.63;;;9.00;94.10;;;;;;5117674;28;20061;-73
2021/04/13 05:36:43;;;;;;;27.13;17.27;;;9.00;94.50;;;;;;5117779;28;20024;-74
2021/04/13 05:39:11;;;;;;;18.60;11.73;;;9.20;94.70;;;;;;5115821;28;20073;-70
2021/04/13 05:41:37;;;;;;;17.10;12.48;;;9.20;94.20;;;;;;5115286;28;20034;-71
2021/04/13 05:44:05;;;;;;;18.80;13.27;;;9.10;94.40;;;;;;5115630;28;20015;-72
2021/04/13 05:46:33;;;;;;;11.23;9.15;;;9.20;94.90;;;;;;5116858;28;20492;-70
2021/04/13 05:48:59;;;;;;;11.05;8.82;;;9.10;94.70;;;;;;5117400;28;20019;-69
2021/04/13 05:51:26;;;;;;;16.10;10.60;;;9.00;94.30;;;;;;5117346;28;20026;-70
2021/04/13 05:53:52;;;;;;;19.73;9.70;;;8.80;94.40;;;;;;5115998;28;20076;-70
2021/04/13 05:56:25;;;;;;;16.92;10.82;;;8.80;94.70;;;;;;5117560;28;20023;-71
2021/04/13 05:58:51;;;;;;;20.05;11.88;;;9.30;94.60;;;;;;5117843;28;20030;-70
2021/04/13 06:01:20;;;;;;;16.83;11.45;;;9.20;94.20;;;;;;5118675;28;20145;-73
2021/04/13 06:03:47;;;;;;;14.32;10.90;;;9.10;94.40;;;;;;5118175;28;20051;-72
2021/04/13 06:06:16;;;;;;;16.55;12.40;;;9.30;94.00;;;;;;5116434;28;20016;-70
2021/04/13 06:08:42;;;;;;;27.67;22.42;;;9.20;94.00;;;;;;5117263;28;20143;-69
2021/04/13 06:11:19;;;;;;;21.20;16.70;;;9.20;93.50;;;;;;5113629;28;20084;-73
2021/04/13 06:13:47;;;;;;;12.48;9.00;;;;;;;;;;5114458;28;20114;-70
2021/04/13 06:16:14;;;;;;;11.07;8.65;;;9.30;98.40;;;;;;5116104;28;20100;-70
2021/04/13 06:18:40;;;;;;;14.48;10.77;;;9.10;93.70;;;;;;5116095;28;20081;-71
2021/04/13 06:21:06;;;;;;;16.10;10.23;;;9.10;93.30;;;;;;5116342;28;20019;-71
2021/04/13 06:23:32;;;;;;;9.88;7.57;;;9.20;93.00;;;;;;5117243;28;20019;-73
2021/04/13 06:25:58;;;;;;;9.35;7.47;;;9.10;93.60;;;;;;5114543;28;20094;-69
2021/04/13 06:28:26;;;;;;;10.95;9.15;;;8.90;93.60;;;;;;5118190;28;20020;-76
2021/04/13 06:30:52;;;;;;;9.95;8.00;;;8.90;94.30;;;;;;5117206;28;20054;-77
2021/04/13 06:33:18;;;;;;;9.98;8.65;;;9.00;93.60;;;;;;5117878;28;20023;-70
2021/04/13 06:35:45;;;;;;;9.27;7.03;;;9.10;93.70;;;;;;5116547;28;20022;-75
2021/04/13 06:38:16;;;;;;;24.75;17.73;;;9.40;93.20;;;;;;5117569;28;20030;-77
2021/04/13 06:41:10;;;;;;;120.55;80.38;;;9.40;93.10;;;;;;5105229;28;20392;-71
2021/04/13 06:44:02;;;;;;;95.80;85.70;;;9.40;92.90;;;;;;5115847;28;20062;-70
2021/04/13 06:46:39;;;;;;;47.72;33.85;;;9.30;93.40;;;;;;5110703;28;20020;-74
2021/04/13 06:49:29;;;;;;;26.17;16.15;;;9.10;93.40;;;;;;5112237;28;20020;-70
2021/04/13 06:52:05;;;;;;;19.77;15.80;;;9.40;93.80;;;;;;5112810;28;20455;-70
2021/04/13 06:54:59;;;;;;;76.30;49.00;;;9.30;93.10;;;;;;5116909;28;20024;-70
2021/04/13 06:57:48;;;;;;;17.90;14.23;;;9.40;93.00;;;;;;5114747;28;20102;-72
2021/04/13 07:00:34;;;;;;;11.55;9.63;;;9.10;93.40;;;;;;5110632;28;20095;-70
2021/04/13 07:03:21;;;;;;;14.38;11.30;;;9.20;93.00;;;;;;5103950;28;20096;-74
2021/04/13 07:05:59;;;;;;;12.00;9.77;;;9.00;93.20;;;;;;5114818;28;20035;-73
2021/04/13 07:08:36;;;;;;;50.47;24.55;;;9.30;93.00;;;;;;5116061;28;20024;-70
2021/04/13 07:11:17;;;;;;;43.10;28.95;;;9.30;93.10;;;;;;5114481;28;20055;-69
2021/04/13 07:14:05;;;;;;;24.67;15.20;;;9.20;92.90;;;;;;5112666;28;20122;-70
2021/04/13 07:16:41;;;;;;;19.88;13.65;;;9.50;92.90;;;;;;5113141;28;20127;-71
2021/04/13 07:19:19;;;;;;;37.38;22.52;;;9.40;92.70;;;;;;5112273;28;20140;-70
2021/04/13 07:21:54;;;;;;;61.40;45.17;;;9.40;93.10;;;;;;5114379;28;20068;-70
2021/04/13 07:24:27;;;;;;;159.02;108.43;;;9.20;92.60;;;;;;5114460;28;20071;-73
2021/04/13 07:27:09;;;;;;;137.10;92.82;;;9.10;93.30;;;;;;5111443;28;20389;-71
2021/04/13 07:29:43;;;;;;;52.13;31.10;;;9.30;92.60;;;;;;5115902;28;20019;-70
2021/04/13 07:32:16;;;;;;;52.67;29.63;;;9.30;93.00;;;;;;5114022;28;20082;-76
2021/04/13 07:34:43;;;;;;;74.55;35.22;;;9.20;93.70;;;;;;5119418;28;20256;-71
2021/04/13 07:37:28;;;;;;;77.57;36.72;;;9.20;93.10;;;;;;5117855;28;20020;-72
2021/04/13 07:39:57;;;;;;;82.00;38.08;;;9.20;93.50;;;;;;5120620;28;20020;-69
2021/04/13 07:42:31;;;;;;;59.53;29.77;;;9.40;93.50;;;;;;5120173;28;20030;-71
2021/04/13 07:45:20;;;;;;;27.13;15.45;;;9.50;93.10;;;;;;5119193;28;20015;-70
2021/04/13 07:48:19;;;;;;;38.35;20.23;;;9.70;92.60;;;;;;5114479;28;20130;-70
2021/04/13 07:50:53;;;;;;;30.65;17.60;;;9.60;93.00;;;;;;5113898;28;20027;-70
2021/04/13 07:53:42;;;;;;;27.48;16.38;;;9.70;92.30;;;;;;5119164;28;20024;-70
2021/04/13 07:56:35;;;;;;;50.13;27.85;;;9.70;92.50;;;;;;5120518;28;20035;-71
2021/04/13 07:59:23;;;;;;;25.17;15.52;;;9.50;93.00;;;;;;5120903;28;20058;-75
2021/04/13 08:01:49;;;;;;;45.78;26.63;;;9.80;92.60;;;;;;5119438;28;20023;-71
2021/04/13 08:04:22;;;;;;;43.28;24.42;;;9.60;92.40;;;;;;5118703;28;20055;-72
2021/04/13 08:06:59;;;;;;;11.98;8.48;;;10.10;92.10;;;;;;5118930;28;20023;-74
2021/04/13 08:09:40;;;;;;;17.27;12.15;;;10.00;91.40;;;;;;5118383;28;20022;-77
2021/04/13 08:12:36;;;;;;;11.90;8.25;;;9.80;91.50;;;;;;5119095;28;20028;-74
2021/04/13 08:15:12;;;;;;;28.52;14.88;;;10.00;90.90;;;;;;5113770;28;20031;-72
2021/04/13 08:17:55;;;;;;;28.15;14.27;;;10.00;91.40;;;;;;5120216;28;20024;-71
2021/04/13 08:20:28;;;;;;;409.98;197.85;;;9.90;91.30;;;;;;5118973;28;20374;-72
2021/04/13 08:23:03;;;;;;;50.67;29.73;;;10.00;92.10;;;;;;5120796;28;20377;-86
2021/04/13 08:25:40;;;;;;;34.80;17.92;;;10.00;91.70;;;;;;5120304;28;20160;-72
2021/04/13 08:28:22;;;;;;;32.38;20.45;;;9.90;91.50;;;;;;5121552;28;20024;-73
2021/04/13 08:34:09;;;;;;;38.78;17.42;;;9.50;92.40;;;;;;5118037;28;20039;-72
2021/04/13 08:37:09;;;;;;;18.10;11.48;;;9.60;92.30;;;;;;5119942;28;20066;-70
2021/04/13 08:40:06;;;;;;;20.10;11.13;;;9.70;92.00;;;;;;5116656;28;20035;-71
2021/04/13 08:43:00;;;;;;;39.55;17.90;;;9.70;92.30;;;;;;5120199;28;20024;-71
2021/04/13 08:46:12;;;;;;;16.70;9.75;;;9.60;92.50;;;;;;5091714;28;20059;-69
2021/04/13 08:49:03;;;;;;;11.38;7.57;;;9.50;92.20;;;;;;5068236;28;20050;-70
2021/04/13 08:51:42;;;;;;;26.48;14.07;;;9.40;93.10;;;;;;5120222;28;20083;-75
2021/04/13 08:54:32;;;;;;;15.25;9.98;;;9.50;94.30;;;;;;5119073;28;20023;-73
2021/04/13 08:57:02;;;;;;;18.55;11.13;;;9.50;94.50;;;;;;5118202;28;20112;-70
2021/04/13 08:59:41;;;;;;;11.88;7.60;;;9.50;94.20;;;;;;5119522;28;20020;-73
2021/04/13 09:02:28;;;;;;;11.10;8.00;;;9.50;94.40;;;;;;5118575;28;20030;-71
2021/04/13 09:05:04;;;;;;;10.75;7.72;;;9.50;96.00;;;;;;5116735;28;20035;-70
2021/04/13 09:07:47;;;;;;;22.17;12.60;;;9.40;95.40;;;;;;5119132;28;20019;-71
2021/04/13 09:10:42;;;;;;;31.75;17.55;;;9.40;96.90;;;;;;5116985;28;20078;-70
2021/04/13 09:13:22;;;;;;;28.40;14.48;;;9.30;97.50;;;;;;5114406;28;20027;-71
2021/04/13 09:16:00;;;;;;;95.28;33.80;;;9.30;96.30;;;;;;5114108;28;20024;-70
2021/04/13 09:18:47;;;;;;;76.70;30.48;;;9.10;98.10;;;;;;5115534;28;20019;-69
2021/04/13 09:21:27;;;;;;;34.55;19.35;;;9.10;98.50;;;;;;5098767;28;20036;-70
2021/04/13 09:24:23;;;;;;;51.22;26.42;;;9.10;98.10;;;;;;5116515;28;20028;-73
2021/04/13 09:27:35;;;;;;;52.25;23.58;;;9.00;98.70;;;;;;5113946;28;20458;-69
2021/04/13 09:30:19;;;;;;;65.25;27.75;;;9.30;98.90;;;;;;5112226;28;20089;-70
2021/04/13 09:32:47;;;;;;;65.82;26.40;;;9.20;98.20;;;;;;5112166;28;20020;-69
2021/04/13 09:35:18;;;;;;;56.75;23.88;;;9.30;97.90;;;;;;5115460;28;20122;-69
2021/04/13 09:38:05;;;;;;;59.47;31.52;;;9.40;98.30;;;;;;5116234;28;20092;-69
2021/04/13 09:40:59;;;;;;;51.28;25.38;;;9.30;99.60;;;;;;5119615;28;20114;-70
2021/04/13 09:44:14;;;;;;;57.70;31.98;;;9.50;99.10;;;;;;5120242;28;20000;-69
2021/04/13 09:46:57;;;;;;;49.80;32.03;;;9.40;98.30;;;;;;5119920;28;20049;-71
2021/04/13 09:49:53;;;;;;;90.03;46.70;;;9.00;99.30;;;;;;5120035;28;20034;-71
2021/04/13 09:52:28;;;;;;;72.00;41.33;;;8.90;99.90;;;;;;5118899;28;20019;-69
2021/04/13 09:55:25;;;;;;;100.25;60.97;;;8.90;99.90;;;;;;5119293;28;20032;-69
2021/04/13 09:58:09;;;;;;;77.75;42.50;;;8.90;99.90;;;;;;5117827;28;20051;-69
2021/04/13 10:00:41;;;;;;;60.83;31.25;;;8.90;99.90;;;;;;5116374;28;20045;-71
2021/04/13 10:03:19;;;;;;;81.18;46.67;;;8.90;99.80;;;;;;5117746;28;20079;-71
2021/04/13 10:05:49;;;;;;;110.65;65.22;;;8.80;99.90;;;;;;5098310;28;20024;-69
2021/04/13 10:08:15;;;;;;;64.22;38.58;;;8.80;99.90;;;;;;5114891;28;20080;-70
2021/04/13 10:11:11;;;;;;;40.65;25.52;;;9.00;99.90;;;;;;5117331;28;20047;-70
2021/04/13 10:14:01;;;;;;;56.13;35.22;;;9.10;99.90;;;;;;5119664;28;20034;-70
2021/04/13 10:17:09;;;;;;;51.83;30.85;;;8.80;99.90;;;;;;5119263;28;20053;-70
2021/04/13 10:19:56;;;;;;;70.88;42.40;;;8.80;99.90;;;;;;5117872;28;20019;-69
2021/04/13 10:22:34;;;;;;;53.40;31.55;;;8.80;99.90;;;;;;5118715;28;20088;-69
2021/04/13 10:25:42;;;;;;;43.95;26.23;;;8.90;99.90;;;;;;5118635;28;20027;-70
2021/04/13 10:28:31;;;;;;;50.28;32.72;;;9.10;99.90;;;;;;5119331;28;20031;-67
2021/04/13 10:31:27;;;;;;;69.28;47.22;;;9.20;99.90;;;;;;5116912;28;20034;-69
2021/04/13 10:34:30;;;;;;;100.53;56.95;;;8.90;99.90;;;;;;5097796;28;20485;-69
2021/04/13 10:37:28;;;;;;;73.82;36.85;;;8.90;99.90;;;;;;5103375;28;20031;-69
2021/04/13 10:40:31;;;;;;;96.82;50.83;;;9.00;99.90;;;;;;5115187;28;20023;-67
2021/04/13 10:43:26;;;;;;;121.70;63.45;;;8.70;99.90;;;;;;5117064;28;20046;-69
2021/04/13 10:46:07;;;;;;;;;;;8.70;99.90;;;;;;5119239;28;20039;-70
2021/04/13 10:48:54;;;;;;;95.97;51.92;;;8.70;99.90;;;;;;5117973;28;20330;-69
2021/04/13 10:51:42;;;;;;;82.40;43.30;;;8.60;99.90;;;;;;5117709;28;20114;-69
2021/04/13 10:54:21;;;;;;;46.70;28.95;;;8.40;99.90;;;;;;5118143;28;20438;-68
2021/04/13 10:57:09;;;;;;;49.00;30.95;;;8.40;99.90;;;;;;5116835;28;20035;-68
2021/04/13 10:59:56;;;;;;;72.43;48.42;;;8.50;99.90;;;;;;5116734;28;20125;-68
2021/04/13 11:02:57;;;;;;;58.17;35.95;;;8.50;99.90;;;;;;5114339;28;20039;-70
2021/04/13 11:05:41;;;;;;;93.28;56.30;;;8.50;99.90;;;;;;5114910;28;20061;-67
2021/04/13 11:08:32;;;;;;;109.70;61.50;;;8.40;99.90;;;;;;5116027;28;20504;-68
2021/04/13 11:11:35;;;;;;;49.40;33.75;;;8.50;99.90;;;;;;5115361;28;20020;-68
2021/04/13 11:14:46;;;;;;;48.13;37.00;;;8.60;99.90;;;;;;5116266;28;20028;-66
2021/04/13 11:17:48;;;;;;;37.55;29.35;;;8.50;99.90;;;;;;5092436;28;20048;-67
2021/04/13 11:20:25;;;;;;;40.50;29.13;;;8.50;99.90;;;;;;5117366;28;20023;-71
2021/04/13 11:23:12;;;;;;;85.35;64.35;;;8.60;99.90;;;;;;5116749;28;20089;-68
2021/04/13 11:26:06;;;;;;;45.70;32.80;;;8.50;99.90;;;;;;5117924;28;20026;-71
2021/04/13 11:28:56;;;;;;;57.42;38.10;;;8.60;99.90;;;;;;5118579;28;20023;-69
2021/04/13 11:31:37;;;;;;;60.35;38.72;;;8.60;99.90;;;;;;5118087;28;20024;-72
2021/04/13 11:34:31;;;;;;;50.92;33.75;;;8.50;99.90;;;;;;5116827;28;20028;-70
2021/04/13 11:37:18;;;;;;;41.97;28.58;;;8.50;99.90;;;;;;5116138;28;20512;-69
2021/04/13 11:40:10;;;;;;;61.35;37.15;;;8.50;99.90;;;;;;5117703;28;20019;-70
2021/04/13 11:42:41;;;;;;;54.72;36.15;;;8.50;99.90;;;;;;5119053;28;20019;-69
2021/04/13 11:46:05;;;;;;;41.45;30.13;;;8.60;99.90;;;;;;5116932;28;20022;-69
2021/04/13 11:48:47;;;;;;;65.63;40.00;;;8.50;99.90;;;;;;5059326;28;20418;-69
2021/04/13 11:51:23;;;;;;;68.43;40.47;;;8.50;99.90;;;;;;5057713;28;20041;-68
2021/04/13 11:53:52;;;;;;;35.65;25.55;;;8.50;99.90;;;;;;5042165;28;20516;-72
2021/04/13 11:56:23;;;;;;;45.45;30.90;;;8.60;99.90;;;;;;5056482;28;20099;-71
2021/04/13 11:59:17;;;;;;;34.13;25.95;;;8.40;99.90;;;;;;5042037;28;20041;-70
2021/04/13 12:01:44;;;;;;;35.45;26.08;;;8.30;99.90;;;;;;5041025;28;20025;-68
2021/04/13 12:04:39;;;;;;;29.50;23.33;;;8.40;99.90;;;;;;5057794;28;20048;-71
2021/04/13 12:07:07;;;;;;;31.70;24.85;;;8.50;99.90;;;;;;5058101;28;20143;-68
2021/04/13 12:10:03;;;;;;;26.63;18.42;;;8.50;99.90;;;;;;5057855;28;20588;-70
2021/04/13 12:15:20;;;;;;;30.08;22.30;;;8.40;99.90;;;;;;5058358;28;20514;-71
2021/04/13 12:17:49;;;;;;;33.58;24.58;;;8.30;99.90;;;;;;5029246;28;20041;-68
2021/04/13 12:20:27;;;;;;;25.95;19.67;;;8.40;99.90;;;;;;5057243;28;20049;-72
2021/04/13 12:23:02;;;;;;;34.47;24.85;;;8.30;99.90;;;;;;5099079;28;20042;-69
2021/04/13 12:25:37;;;;;;;;;;;8.50;99.90;;;;;;5121462;28;20050;-70
2021/04/13 12:28:34;;;;;;;35.08;22.98;;;8.60;99.90;;;;;;5120071;27;19961;-70
2021/04/13 12:31:23;;;;;;;66.38;38.97;;;8.50;99.90;;;;;;5119650;28;20031;-70
2021/04/13 12:34:03;;;;;;;61.63;37.38;;;8.40;99.90;;;;;;5120874;28;20411;-73
2021/04/13 12:36:48;;;;;;;47.22;29.98;;;8.50;99.90;;;;;;5121455;28;20084;-69
2021/04/13 12:39:40;;;;;;;50.20;30.05;;;8.40;99.90;;;;;;5120823;28;20027;-69
2021/04/13 12:42:07;;;;;;;29.58;21.38;;;8.50;99.90;;;;;;5109540;28;20028;-70
2021/04/13 12:44:34;;;;;;;35.75;22.70;;;8.50;99.90;;;;;;5119465;28;20020;-69
2021/04/13 12:47:00;;;;;;;56.30;33.47;;;8.30;99.90;;;;;;5120191;28;20020;-71
2021/04/13 12:49:31;;;;;;;37.45;23.73;;;;;;;;;;5118417;28;20421;-71
2021/04/13 12:52:01;;;;;;;32.53;22.58;;;8.20;99.90;;;;;;5120488;28;20087;-69
2021/04/13 12:54:34;;;;;;;28.20;19.92;;;8.30;99.90;;;;;;5120390;28;20051;-69
2021/04/13 12:57:21;;;;;;;32.58;23.45;;;8.40;99.90;;;;;;5121203;28;20047;-70
2021/04/13 12:59:49;;;;;;;29.48;20.75;;;8.30;99.90;;;;;;5120034;28;20024;-71
2021/04/13 13:02:38;;;;;;;33.58;21.33;;;8.40;99.90;;;;;;5119322;28;20046;-70
2021/04/13 13:05:28;;;;;;;42.75;23.08;;;8.50;99.90;;;;;;5120636;28;20081;-71
2021/04/13 13:07:59;;;;;;;61.45;29.70;;;8.50;99.90;;;;;;5104088;28;20542;-70
2021/04/13 13:10:42;;;;;;;22.58;14.20;;;8.40;99.90;;;;;;5111450;27;20470;-70
2021/04/13 13:13:13;;;;;;;171.38;96.80;;;8.40;99.90;;;;;;5096090;28;20363;-69
2021/04/13 13:15:40;;;;;;;137.10;122.78;;;8.40;99.90;;;;;;5116882;28;20036;-69
2021/04/13 13:18:36;;;;;;;29.85;23.85;;;8.50;99.90;;;;;;5117256;28;20019;-71
2021/04/13 13:21:03;;;;;;;21.08;15.65;;;8.30;99.90;;;;;;5103707;28;20026;-69
2021/04/13 13:23:51;;;;;;;22.42;14.43;;;8.30;99.90;;;;;;5092843;28;20054;-69
2021/04/13 13:26:16;;;;;;;21.02;14.27;;;8.50;99.90;;;;;;5092907;28;20016;-68
2021/04/13 13:28:45;;;;;;;23.85;17.73;;;8.60;99.90;;;;;;5091668;28;20039;-69
2021/04/13 13:31:26;;;;;;;19.92;13.60;;;8.40;99.90;;;;;;5091565;28;20016;-68
2021/04/13 13:33:59;;;;;;;23.13;16.30;;;8.40;99.90;;;;;;5092893;28;20690;-68
2021/04/13 13:36:28;;;;;;;19.33;13.55;;;8.40;99.90;;;;;;5097533;28;20035;-70
2021/04/13 13:38:55;;;;;;;19.75;14.35;;;8.20;99.90;;;;;;5117876;28;20020;-70
2021/04/13 13:41:25;;;;;;;19.08;12.90;;;8.10;99.90;;;;;;5117710;28;20023;-71
2021/04/13 13:43:51;;;;;;;21.65;14.10;;;8.00;99.90;;;;;;5118107;28;20388;-69